Pagrindinis puslapis
METAR-TAF:

METAR-TAF

Oro uostai :

Hangdžou, Kinija

platuma: 30-14N, ilguma: 120-10E, Aukštis: 43 m

Dabartinis oras

Ataskaita buvo paskelbta 17 minutes, ne 20:00 UTC
Vėjas 4 kt iš Pietvakarių
Temperatūra 3°C
Drėgmė 60%
Slėgis 1033 hPa
Matomumas 10 km arba daugiau
nėra debesų žemiau 1500 m ir nėra kamuolinių lietaus debesų

METAR: ZSHC 172000Z 23002MPS CAVOK 03/M04 Q1033 NOSIG

Laikas: 04:17 (20:17 UTC)

Prognozė

Ataskaita buvo paskelbta 5 valandos ir 13 minutes, ne 15:04 UTC
Prognozė galioja nuo 17 metu 18 UTC su 18 metu 18 UTC
Vėjas 6 kt iš Vakarų/Pietvakarių
Matomumas: 3000 m
rūkana
Tapsmas
nuo 18 metu 04 UTC su 18 metu 05 UTC
Vėjas 10 kt iš Rytų

TAF: ZSHC 171504Z 1718/1818 25003MPS 3000 BR NSC TX12/1806Z TNM01/1721Z BECMG 1804/1805 09005MPS

Orai ataskaitas ir orų prognozės (METAR, TAF).

turimą stotys yra geltonos ir raudonos taškus žemėlapyje.

Perkelti pele per norėdami pamatyti stoties vardą.

Tada spustelėkite, norėdami matyti oro stebėjimo ir prognozės.

Norėdami pakeisti žemėlapį: spustelėkite ant žalios mygtukų su juodo kryžiaus žemyn,; žalią mygtuką su brūkšneliu, jei norite nutolinti; arba žalių rodyklių gretimoms žemėlapius.


METAR-TAF: